sensor_id;sensor_type;location;lat;lon;timestamp;P1;durP1;ratioP1;P2;durP2;ratioP2
10162;SDS011;5123;52.556;13.384;2024-03-07T00:01:30;89.47;;;35.87;;
10162;SDS011;5123;52.556;13.384;2024-03-07T00:04:03;85.60;;;34.57;;
10162;SDS011;5123;52.556;13.384;2024-03-07T00:06:36;82.03;;;34.23;;
10162;SDS011;5123;52.556;13.384;2024-03-07T00:09:09;86.90;;;35.10;;
10162;SDS011;5123;52.556;13.384;2024-03-07T00:11:42;88.27;;;37.53;;
10162;SDS011;5123;52.556;13.384;2024-03-07T00:14:18;82.40;;;35.40;;
10162;SDS011;5123;52.556;13.384;2024-03-07T00:16:52;89.47;;;34.33;;
10162;SDS011;5123;52.556;13.384;2024-03-07T00:19:25;94.67;;;35.77;;
10162;SDS011;5123;52.556;13.384;2024-03-07T00:21:58;93.33;;;35.33;;
10162;SDS011;5123;52.556;13.384;2024-03-07T00:24:31;85.77;;;37.40;;
10162;SDS011;5123;52.556;13.384;2024-03-07T00:27:04;81.13;;;35.13;;
10162;SDS011;5123;52.556;13.384;2024-03-07T00:29:38;85.13;;;33.67;;
10162;SDS011;5123;52.556;13.384;2024-03-07T00:32:10;78.00;;;34.50;;
10162;SDS011;5123;52.556;13.384;2024-03-07T00:34:46;82.17;;;34.30;;
10162;SDS011;5123;52.556;13.384;2024-03-07T00:37:19;87.80;;;34.03;;
10162;SDS011;5123;52.556;13.384;2024-03-07T00:39:52;86.87;;;34.37;;
10162;SDS011;5123;52.556;13.384;2024-03-07T00:42:25;80.27;;;36.57;;
10162;SDS011;5123;52.556;13.384;2024-03-07T00:45:00;79.70;;;34.30;;
10162;SDS011;5123;52.556;13.384;2024-03-07T00:47:32;80.07;;;34.17;;
10162;SDS011;5123;52.556;13.384;2024-03-07T00:50:06;88.07;;;33.57;;
10162;SDS011;5123;52.556;13.384;2024-03-07T00:52:40;87.23;;;35.63;;
10162;SDS011;5123;52.556;13.384;2024-03-07T00:55:15;89.47;;;35.87;;
10162;SDS011;5123;52.556;13.384;2024-03-07T00:57:47;82.50;;;34.57;;
10162;SDS011;5123;52.556;13.384;2024-03-07T01:00:22;81.73;;;34.63;;
10162;SDS011;5123;52.556;13.384;2024-03-07T01:02:54;85.63;;;35.20;;
10162;SDS011;5123;52.556;13.384;2024-03-07T01:05:28;87.33;;;34.27;;
10162;SDS011;5123;52.556;13.384;2024-03-07T01:08:01;85.87;;;34.27;;
10162;SDS011;5123;52.556;13.384;2024-03-07T01:10:34;78.90;;;33.43;;
10162;SDS011;5123;52.556;13.384;2024-03-07T01:13:07;94.23;;;34.33;;
10162;SDS011;5123;52.556;13.384;2024-03-07T01:15:48;85.03;;;33.83;;
10162;SDS011;5123;52.556;13.384;2024-03-07T01:18:21;81.20;;;34.20;;
10162;SDS011;5123;52.556;13.384;2024-03-07T01:20:54;81.87;;;33.83;;
10162;SDS011;5123;52.556;13.384;2024-03-07T01:23:27;81.53;;;33.03;;
10162;SDS011;5123;52.556;13.384;2024-03-07T01:26:00;89.13;;;36.20;;
10162;SDS011;5123;52.556;13.384;2024-03-07T01:28:33;92.43;;;33.70;;
10162;SDS011;5123;52.556;13.384;2024-03-07T01:31:08;75.30;;;34.10;;
10162;SDS011;5123;52.556;13.384;2024-03-07T01:33:41;82.10;;;35.40;;
10162;SDS011;5123;52.556;13.384;2024-03-07T01:36:15;72.17;;;33.67;;
10162;SDS011;5123;52.556;13.384;2024-03-07T01:38:47;88.40;;;36.53;;
10162;SDS011;5123;52.556;13.384;2024-03-07T01:41:21;78.97;;;33.90;;
10162;SDS011;5123;52.556;13.384;2024-03-07T01:43:53;78.73;;;32.93;;
10162;SDS011;5123;52.556;13.384;2024-03-07T01:46:29;83.67;;;35.87;;
10162;SDS011;5123;52.556;13.384;2024-03-07T01:49:02;81.57;;;34.93;;
10162;SDS011;5123;52.556;13.384;2024-03-07T01:51:36;78.80;;;33.60;;
10162;SDS011;5123;52.556;13.384;2024-03-07T01:54:09;83.97;;;34.00;;
10162;SDS011;5123;52.556;13.384;2024-03-07T01:56:42;77.90;;;33.73;;
10162;SDS011;5123;52.556;13.384;2024-03-07T01:59:15;68.13;;;33.90;;
10162;SDS011;5123;52.556;13.384;2024-03-07T02:01:51;73.60;;;31.70;;
10162;SDS011;5123;52.556;13.384;2024-03-07T02:04:24;77.47;;;34.00;;
10162;SDS011;5123;52.556;13.384;2024-03-07T02:06:57;68.23;;;32.93;;
10162;SDS011;5123;52.556;13.384;2024-03-07T02:09:30;73.00;;;32.40;;
10162;SDS011;5123;52.556;13.384;2024-03-07T02:12:03;73.13;;;33.50;;
10162;SDS011;5123;52.556;13.384;2024-03-07T02:14:35;74.87;;;33.90;;
10162;SDS011;5123;52.556;13.384;2024-03-07T02:17:09;76.30;;;34.67;;
10162;SDS011;5123;52.556;13.384;2024-03-07T02:19:42;75.43;;;33.03;;
10162;SDS011;5123;52.556;13.384;2024-03-07T02:22:16;76.00;;;36.07;;
10162;SDS011;5123;52.556;13.384;2024-03-07T02:24:49;70.97;;;34.37;;
10162;SDS011;5123;52.556;13.384;2024-03-07T02:27:21;75.93;;;33.47;;
10162;SDS011;5123;52.556;13.384;2024-03-07T02:29:54;88.60;;;35.03;;
10162;SDS011;5123;52.556;13.384;2024-03-07T02:32:27;74.87;;;35.47;;
10162;SDS011;5123;52.556;13.384;2024-03-07T02:35:00;83.37;;;34.60;;
10162;SDS011;5123;52.556;13.384;2024-03-07T02:37:34;81.03;;;35.10;;
10162;SDS011;5123;52.556;13.384;2024-03-07T02:40:07;74.57;;;35.00;;
10162;SDS011;5123;52.556;13.384;2024-03-07T02:42:41;69.83;;;35.53;;
10162;SDS011;5123;52.556;13.384;2024-03-07T02:45:14;83.67;;;36.63;;
10162;SDS011;5123;52.556;13.384;2024-03-07T02:47:47;69.27;;;35.50;;
10162;SDS011;5123;52.556;13.384;2024-03-07T02:50:20;81.70;;;36.87;;
10162;SDS011;5123;52.556;13.384;2024-03-07T02:52:58;86.97;;;38.10;;
10162;SDS011;5123;52.556;13.384;2024-03-07T02:55:31;77.30;;;36.77;;
10162;SDS011;5123;52.556;13.384;2024-03-07T02:58:03;80.90;;;37.47;;
10162;SDS011;5123;52.556;13.384;2024-03-07T03:00:36;80.00;;;38.13;;
10162;SDS011;5123;52.556;13.384;2024-03-07T03:03:09;87.17;;;39.37;;
10162;SDS011;5123;52.556;13.384;2024-03-07T03:05:42;81.67;;;37.37;;
10162;SDS011;5123;52.556;13.384;2024-03-07T03:08:16;83.83;;;38.43;;
10162;SDS011;5123;52.556;13.384;2024-03-07T03:10:49;85.47;;;36.27;;
10162;SDS011;5123;52.556;13.384;2024-03-07T03:13:25;76.27;;;37.00;;
10162;SDS011;5123;52.556;13.384;2024-03-07T03:15:59;84.90;;;38.00;;
10162;SDS011;5123;52.556;13.384;2024-03-07T03:18:31;93.53;;;39.17;;
10162;SDS011;5123;52.556;13.384;2024-03-07T03:21:05;89.33;;;37.23;;
10162;SDS011;5123;52.556;13.384;2024-03-07T03:23:40;78.57;;;36.60;;
10162;SDS011;5123;52.556;13.384;2024-03-07T03:26:13;82.47;;;37.27;;
10162;SDS011;5123;52.556;13.384;2024-03-07T03:28:47;78.07;;;35.97;;
10162;SDS011;5123;52.556;13.384;2024-03-07T03:31:19;78.20;;;38.10;;
10162;SDS011;5123;52.556;13.384;2024-03-07T03:33:52;86.40;;;39.27;;
10162;SDS011;5123;52.556;13.384;2024-03-07T03:36:25;85.27;;;38.33;;
10162;SDS011;5123;52.556;13.384;2024-03-07T03:39:00;89.93;;;39.50;;
10162;SDS011;5123;52.556;13.384;2024-03-07T03:41:32;89.73;;;38.03;;
10162;SDS011;5123;52.556;13.384;2024-03-07T03:44:05;89.00;;;37.50;;
10162;SDS011;5123;52.556;13.384;2024-03-07T03:46:39;78.63;;;38.87;;
10162;SDS011;5123;52.556;13.384;2024-03-07T03:49:13;92.27;;;39.27;;
10162;SDS011;5123;52.556;13.384;2024-03-07T03:51:45;79.13;;;38.10;;
10162;SDS011;5123;52.556;13.384;2024-03-07T03:54:20;77.53;;;37.83;;
10162;SDS011;5123;52.556;13.384;2024-03-07T03:56:53;85.90;;;37.03;;
10162;SDS011;5123;52.556;13.384;2024-03-07T03:59:25;75.50;;;37.17;;
10162;SDS011;5123;52.556;13.384;2024-03-07T04:01:58;71.03;;;36.47;;
10162;SDS011;5123;52.556;13.384;2024-03-07T04:04:31;74.57;;;35.37;;
10162;SDS011;5123;52.556;13.384;2024-03-07T04:07:04;71.93;;;36.77;;
10162;SDS011;5123;52.556;13.384;2024-03-07T04:09:38;78.37;;;37.70;;
10162;SDS011;5123;52.556;13.384;2024-03-07T04:12:11;77.60;;;37.60;;
10162;SDS011;5123;52.556;13.384;2024-03-07T04:14:45;74.87;;;34.53;;
10162;SDS011;5123;52.556;13.384;2024-03-07T04:17:18;65.50;;;35.23;;
10162;SDS011;5123;52.556;13.384;2024-03-07T04:19:52;75.97;;;36.33;;
10162;SDS011;5123;52.556;13.384;2024-03-07T04:22:24;63.70;;;34.80;;
10162;SDS011;5123;52.556;13.384;2024-03-07T04:24:59;75.17;;;35.83;;
10162;SDS011;5123;52.556;13.384;2024-03-07T04:27:36;67.00;;;35.03;;
10162;SDS011;5123;52.556;13.384;2024-03-07T04:30:11;66.87;;;35.60;;
10162;SDS011;5123;52.556;13.384;2024-03-07T04:32:43;66.43;;;34.67;;
10162;SDS011;5123;52.556;13.384;2024-03-07T04:35:16;70.10;;;34.43;;
10162;SDS011;5123;52.556;13.384;2024-03-07T04:37:50;68.17;;;36.60;;
10162;SDS011;5123;52.556;13.384;2024-03-07T04:40:25;65.97;;;33.83;;
10162;SDS011;5123;52.556;13.384;2024-03-07T04:42:58;65.43;;;34.43;;
10162;SDS011;5123;52.556;13.384;2024-03-07T04:45:31;63.90;;;32.80;;
10162;SDS011;5123;52.556;13.384;2024-03-07T04:48:04;63.37;;;34.07;;
10162;SDS011;5123;52.556;13.384;2024-03-07T04:50:40;61.03;;;33.23;;
10162;SDS011;5123;52.556;13.384;2024-03-07T04:53:13;66.20;;;32.67;;
10162;SDS011;5123;52.556;13.384;2024-03-07T04:55:48;62.00;;;32.53;;
10162;SDS011;5123;52.556;13.384;2024-03-07T04:58:21;59.60;;;32.07;;
10162;SDS011;5123;52.556;13.384;2024-03-07T05:00:56;56.27;;;31.90;;
10162;SDS011;5123;52.556;13.384;2024-03-07T05:03:29;59.90;;;31.87;;
10162;SDS011;5123;52.556;13.384;2024-03-07T05:06:05;59.07;;;31.70;;
10162;SDS011;5123;52.556;13.384;2024-03-07T05:08:37;57.37;;;31.33;;
10162;SDS011;5123;52.556;13.384;2024-03-07T05:11:11;55.97;;;32.13;;
10162;SDS011;5123;52.556;13.384;2024-03-07T05:13:44;52.83;;;30.30;;
10162;SDS011;5123;52.556;13.384;2024-03-07T05:16:19;56.00;;;32.83;;
10162;SDS011;5123;52.556;13.384;2024-03-07T05:18:53;54.33;;;31.10;;
10162;SDS011;5123;52.556;13.384;2024-03-07T05:21:29;51.00;;;30.73;;
10162;SDS011;5123;52.556;13.384;2024-03-07T05:24:06;48.80;;;30.80;;
10162;SDS011;5123;52.556;13.384;2024-03-07T05:26:40;54.03;;;30.93;;
10162;SDS011;5123;52.556;13.384;2024-03-07T05:29:13;52.30;;;30.47;;
10162;SDS011;5123;52.556;13.384;2024-03-07T05:31:46;52.77;;;29.70;;
10162;SDS011;5123;52.556;13.384;2024-03-07T05:34:19;45.90;;;28.00;;
10162;SDS011;5123;52.556;13.384;2024-03-07T05:36:55;47.40;;;29.53;;
10162;SDS011;5123;52.556;13.384;2024-03-07T05:39:28;46.93;;;28.37;;
10162;SDS011;5123;52.556;13.384;2024-03-07T05:42:02;46.57;;;28.93;;
10162;SDS011;5123;52.556;13.384;2024-03-07T05:44:35;43.90;;;27.83;;
10162;SDS011;5123;52.556;13.384;2024-03-07T05:47:08;53.33;;;30.03;;
10162;SDS011;5123;52.556;13.384;2024-03-07T05:49:41;49.13;;;30.13;;
10162;SDS011;5123;52.556;13.384;2024-03-07T05:52:14;48.97;;;29.13;;
10162;SDS011;5123;52.556;13.384;2024-03-07T05:54:47;49.77;;;27.77;;
10162;SDS011;5123;52.556;13.384;2024-03-07T05:57:21;48.87;;;28.80;;
10162;SDS011;5123;52.556;13.384;2024-03-07T05:59:54;49.57;;;29.27;;
10162;SDS011;5123;52.556;13.384;2024-03-07T06:02:28;52.77;;;29.43;;
10162;SDS011;5123;52.556;13.384;2024-03-07T06:05:01;52.10;;;29.77;;
10162;SDS011;5123;52.556;13.384;2024-03-07T06:07:41;52.87;;;30.53;;
10162;SDS011;5123;52.556;13.384;2024-03-07T06:10:13;46.90;;;29.63;;
10162;SDS011;5123;52.556;13.384;2024-03-07T06:12:50;50.40;;;29.40;;
10162;SDS011;5123;52.556;13.384;2024-03-07T06:15:39;51.13;;;30.63;;
10162;SDS011;5123;52.556;13.384;2024-03-07T06:18:12;51.33;;;30.67;;
10162;SDS011;5123;52.556;13.384;2024-03-07T06:20:46;48.67;;;28.83;;
10162;SDS011;5123;52.556;13.384;2024-03-07T06:23:19;48.20;;;29.43;;
10162;SDS011;5123;52.556;13.384;2024-03-07T06:25:52;47.50;;;29.57;;
10162;SDS011;5123;52.556;13.384;2024-03-07T06:28:28;52.00;;;28.77;;
10162;SDS011;5123;52.556;13.384;2024-03-07T06:31:01;51.43;;;29.37;;
10162;SDS011;5123;52.556;13.384;2024-03-07T06:33:38;50.27;;;27.70;;
10162;SDS011;5123;52.556;13.384;2024-03-07T06:36:11;45.50;;;26.13;;
10162;SDS011;5123;52.556;13.384;2024-03-07T06:38:44;48.77;;;28.90;;
10162;SDS011;5123;52.556;13.384;2024-03-07T06:41:17;45.67;;;27.53;;
10162;SDS011;5123;52.556;13.384;2024-03-07T06:43:51;47.17;;;28.30;;
10162;SDS011;5123;52.556;13.384;2024-03-07T06:46:24;46.10;;;27.10;;
10162;SDS011;5123;52.556;13.384;2024-03-07T06:48:58;46.33;;;26.90;;
10162;SDS011;5123;52.556;13.384;2024-03-07T06:51:31;42.20;;;26.53;;
10162;SDS011;5123;52.556;13.384;2024-03-07T06:54:04;45.03;;;25.97;;
10162;SDS011;5123;52.556;13.384;2024-03-07T06:56:37;37.87;;;25.53;;
10162;SDS011;5123;52.556;13.384;2024-03-07T06:59:13;43.30;;;25.40;;
10162;SDS011;5123;52.556;13.384;2024-03-07T07:01:46;41.87;;;26.33;;
10162;SDS011;5123;52.556;13.384;2024-03-07T07:04:22;40.70;;;24.07;;
10162;SDS011;5123;52.556;13.384;2024-03-07T07:06:56;41.07;;;25.20;;
10162;SDS011;5123;52.556;13.384;2024-03-07T07:09:31;38.53;;;24.37;;
10162;SDS011;5123;52.556;13.384;2024-03-07T07:12:04;35.63;;;24.30;;
10162;SDS011;5123;52.556;13.384;2024-03-07T07:14:38;39.53;;;24.03;;
10162;SDS011;5123;52.556;13.384;2024-03-07T07:17:12;40.97;;;24.53;;
10162;SDS011;5123;52.556;13.384;2024-03-07T07:19:45;39.97;;;23.70;;
10162;SDS011;5123;52.556;13.384;2024-03-07T07:22:17;35.80;;;21.93;;
10162;SDS011;5123;52.556;13.384;2024-03-07T07:24:52;39.23;;;22.43;;
10162;SDS011;5123;52.556;13.384;2024-03-07T07:27:25;36.07;;;22.73;;
10162;SDS011;5123;52.556;13.384;2024-03-07T07:30:02;32.07;;;20.93;;
10162;SDS011;5123;52.556;13.384;2024-03-07T07:32:34;35.40;;;20.83;;
10162;SDS011;5123;52.556;13.384;2024-03-07T07:35:08;30.50;;;21.43;;
10162;SDS011;5123;52.556;13.384;2024-03-07T07:37:43;36.23;;;20.77;;
10162;SDS011;5123;52.556;13.384;2024-03-07T07:40:16;35.43;;;20.30;;
10162;SDS011;5123;52.556;13.384;2024-03-07T07:42:51;32.47;;;19.70;;
10162;SDS011;5123;52.556;13.384;2024-03-07T07:45:26;28.17;;;19.50;;
10162;SDS011;5123;52.556;13.384;2024-03-07T07:47:58;29.90;;;18.83;;
10162;SDS011;5123;52.556;13.384;2024-03-07T07:50:31;31.57;;;18.03;;
10162;SDS011;5123;52.556;13.384;2024-03-07T07:53:06;28.57;;;19.70;;
10162;SDS011;5123;52.556;13.384;2024-03-07T07:55:40;33.20;;;19.93;;
10162;SDS011;5123;52.556;13.384;2024-03-07T07:58:13;27.40;;;19.33;;
10162;SDS011;5123;52.556;13.384;2024-03-07T08:00:47;26.90;;;18.37;;
10162;SDS011;5123;52.556;13.384;2024-03-07T08:03:20;30.13;;;19.10;;
10162;SDS011;5123;52.556;13.384;2024-03-07T08:05:53;30.90;;;19.47;;
10162;SDS011;5123;52.556;13.384;2024-03-07T08:08:26;30.27;;;18.57;;
10162;SDS011;5123;52.556;13.384;2024-03-07T08:11:00;27.53;;;18.43;;
10162;SDS011;5123;52.556;13.384;2024-03-07T08:13:33;25.03;;;17.87;;
10162;SDS011;5123;52.556;13.384;2024-03-07T08:16:08;28.27;;;17.83;;
10162;SDS011;5123;52.556;13.384;2024-03-07T08:18:42;25.97;;;16.97;;
10162;SDS011;5123;52.556;13.384;2024-03-07T08:21:16;28.90;;;17.50;;
10162;SDS011;5123;52.556;13.384;2024-03-07T08:23:49;30.00;;;17.20;;
10162;SDS011;5123;52.556;13.384;2024-03-07T08:26:23;25.77;;;17.83;;
10162;SDS011;5123;52.556;13.384;2024-03-07T08:28:56;26.43;;;16.90;;
10162;SDS011;5123;52.556;13.384;2024-03-07T08:31:30;24.57;;;16.63;;
10162;SDS011;5123;52.556;13.384;2024-03-07T08:34:02;23.93;;;15.27;;
10162;SDS011;5123;52.556;13.384;2024-03-07T08:36:35;23.33;;;15.37;;
10162;SDS011;5123;52.556;13.384;2024-03-07T08:39:10;24.03;;;15.73;;
10162;SDS011;5123;52.556;13.384;2024-03-07T08:41:45;25.87;;;15.93;;
10162;SDS011;5123;52.556;13.384;2024-03-07T08:44:18;22.13;;;15.77;;
10162;SDS011;5123;52.556;13.384;2024-03-07T08:46:52;19.97;;;14.67;;
10162;SDS011;5123;52.556;13.384;2024-03-07T08:49:24;22.43;;;15.33;;
10162;SDS011;5123;52.556;13.384;2024-03-07T08:51:57;27.83;;;18.07;;
10162;SDS011;5123;52.556;13.384;2024-03-07T08:54:32;25.87;;;15.47;;
10162;SDS011;5123;52.556;13.384;2024-03-07T08:57:07;24.13;;;16.37;;
10162;SDS011;5123;52.556;13.384;2024-03-07T08:59:40;21.30;;;14.83;;
10162;SDS011;5123;52.556;13.384;2024-03-07T09:02:16;20.10;;;14.97;;
10162;SDS011;5123;52.556;13.384;2024-03-07T09:04:49;23.80;;;15.40;;
10162;SDS011;5123;52.556;13.384;2024-03-07T09:07:22;21.33;;;14.20;;
10162;SDS011;5123;52.556;13.384;2024-03-07T09:09:55;17.90;;;13.60;;
10162;SDS011;5123;52.556;13.384;2024-03-07T09:12:29;18.50;;;13.27;;
10162;SDS011;5123;52.556;13.384;2024-03-07T09:15:02;24.33;;;13.60;;
10162;SDS011;5123;52.556;13.384;2024-03-07T09:17:36;19.77;;;12.90;;
10162;SDS011;5123;52.556;13.384;2024-03-07T09:20:09;21.27;;;13.30;;
10162;SDS011;5123;52.556;13.384;2024-03-07T09:22:46;18.67;;;13.37;;
10162;SDS011;5123;52.556;13.384;2024-03-07T09:25:20;18.03;;;13.97;;
10162;SDS011;5123;52.556;13.384;2024-03-07T09:27:55;18.20;;;13.00;;
10162;SDS011;5123;52.556;13.384;2024-03-07T09:30:28;20.63;;;14.17;;
10162;SDS011;5123;52.556;13.384;2024-03-07T09:33:04;16.37;;;12.47;;
10162;SDS011;5123;52.556;13.384;2024-03-07T09:35:37;21.80;;;16.53;;
10162;SDS011;5123;52.556;13.384;2024-03-07T09:38:10;20.53;;;14.33;;
10162;SDS011;5123;52.556;13.384;2024-03-07T09:40:43;20.13;;;14.07;;
10162;SDS011;5123;52.556;13.384;2024-03-07T09:43:18;19.80;;;14.00;;
10162;SDS011;5123;52.556;13.384;2024-03-07T09:45:51;21.13;;;13.70;;
10162;SDS011;5123;52.556;13.384;2024-03-07T09:48:26;20.87;;;13.03;;
10162;SDS011;5123;52.556;13.384;2024-03-07T09:51:00;20.07;;;12.57;;
10162;SDS011;5123;52.556;13.384;2024-03-07T09:53:35;18.23;;;13.17;;
10162;SDS011;5123;52.556;13.384;2024-03-07T09:56:09;19.07;;;12.13;;
10162;SDS011;5123;52.556;13.384;2024-03-07T09:58:44;17.30;;;12.23;;
10162;SDS011;5123;52.556;13.384;2024-03-07T10:01:19;18.30;;;12.63;;
10162;SDS011;5123;52.556;13.384;2024-03-07T10:03:56;14.23;;;11.17;;
10162;SDS011;5123;52.556;13.384;2024-03-07T10:06:30;16.57;;;12.07;;
10162;SDS011;5123;52.556;13.384;2024-03-07T10:09:02;18.00;;;12.43;;
10162;SDS011;5123;52.556;13.384;2024-03-07T10:11:36;15.43;;;11.57;;
10162;SDS011;5123;52.556;13.384;2024-03-07T10:14:10;14.63;;;11.83;;
10162;SDS011;5123;52.556;13.384;2024-03-07T10:16:43;18.40;;;12.70;;
10162;SDS011;5123;52.556;13.384;2024-03-07T10:19:17;16.63;;;11.53;;
10162;SDS011;5123;52.556;13.384;2024-03-07T10:21:50;18.23;;;12.37;;
10162;SDS011;5123;52.556;13.384;2024-03-07T10:24:29;14.53;;;11.40;;
10162;SDS011;5123;52.556;13.384;2024-03-07T10:27:04;16.20;;;12.33;;
10162;SDS011;5123;52.556;13.384;2024-03-07T10:29:38;15.33;;;10.77;;
10162;SDS011;5123;52.556;13.384;2024-03-07T10:32:11;14.87;;;10.80;;
10162;SDS011;5123;52.556;13.384;2024-03-07T10:34:47;15.93;;;10.63;;
10162;SDS011;5123;52.556;13.384;2024-03-07T10:37:19;13.77;;;11.10;;
10162;SDS011;5123;52.556;13.384;2024-03-07T10:39:53;14.20;;;11.20;;
10162;SDS011;5123;52.556;13.384;2024-03-07T10:42:26;16.00;;;11.27;;
10162;SDS011;5123;52.556;13.384;2024-03-07T10:45:02;13.27;;;11.63;;
10162;SDS011;5123;52.556;13.384;2024-03-07T10:47:36;17.33;;;11.30;;
10162;SDS011;5123;52.556;13.384;2024-03-07T10:50:13;18.13;;;11.10;;
10162;SDS011;5123;52.556;13.384;2024-03-07T10:52:49;13.17;;;10.37;;
10162;SDS011;5123;52.556;13.384;2024-03-07T10:55:30;16.10;;;10.20;;
10162;SDS011;5123;52.556;13.384;2024-03-07T10:58:09;17.47;;;10.93;;
10162;SDS011;5123;52.556;13.384;2024-03-07T11:00:45;16.47;;;11.13;;
10162;SDS011;5123;52.556;13.384;2024-03-07T11:03:18;13.60;;;10.27;;
10162;SDS011;5123;52.556;13.384;2024-03-07T11:05:54;14.37;;;10.67;;
10162;SDS011;5123;52.556;13.384;2024-03-07T11:08:28;11.93;;;10.20;;
10162;SDS011;5123;52.556;13.384;2024-03-07T11:11:01;13.13;;;10.27;;
10162;SDS011;5123;52.556;13.384;2024-03-07T11:13:34;16.13;;;10.30;;
10162;SDS011;5123;52.556;13.384;2024-03-07T11:16:11;16.60;;;12.13;;
10162;SDS011;5123;52.556;13.384;2024-03-07T11:21:43;16.10;;;11.43;;
10162;SDS011;5123;52.556;13.384;2024-03-07T11:24:22;13.47;;;9.93;;
10162;SDS011;5123;52.556;13.384;2024-03-07T11:26:56;14.33;;;10.30;;
10162;SDS011;5123;52.556;13.384;2024-03-07T11:29:39;12.13;;;9.63;;
10162;SDS011;5123;52.556;13.384;2024-03-07T11:32:14;14.53;;;10.83;;
10162;SDS011;5123;52.556;13.384;2024-03-07T11:34:48;13.03;;;10.13;;
10162;SDS011;5123;52.556;13.384;2024-03-07T11:37:39;15.25;;;10.90;;
10162;SDS011;5123;52.556;13.384;2024-03-07T11:40:42;14.97;;;10.47;;
10162;SDS011;5123;52.556;13.384;2024-03-07T11:43:15;16.70;;;11.17;;
10162;SDS011;5123;52.556;13.384;2024-03-07T11:45:48;13.40;;;10.20;;
10162;SDS011;5123;52.556;13.384;2024-03-07T11:48:24;13.87;;;10.37;;
10162;SDS011;5123;52.556;13.384;2024-03-07T11:51:00;12.03;;;9.43;;
10162;SDS011;5123;52.556;13.384;2024-03-07T11:53:36;14.43;;;11.23;;
10162;SDS011;5123;52.556;13.384;2024-03-07T11:56:10;15.40;;;11.77;;
10162;SDS011;5123;52.556;13.384;2024-03-07T11:58:51;14.77;;;10.50;;
10162;SDS011;5123;52.556;13.384;2024-03-07T12:01:26;16.73;;;10.67;;
10162;SDS011;5123;52.556;13.384;2024-03-07T12:04:02;15.63;;;11.13;;
10162;SDS011;5123;52.556;13.384;2024-03-07T12:06:37;15.03;;;11.27;;
10162;SDS011;5123;52.556;13.384;2024-03-07T12:09:11;12.27;;;10.67;;
10162;SDS011;5123;52.556;13.384;2024-03-07T12:11:55;18.03;;;11.37;;
10162;SDS011;5123;52.556;13.384;2024-03-07T12:14:30;16.47;;;11.40;;
10162;SDS011;5123;52.556;13.384;2024-03-07T12:17:05;18.23;;;11.60;;
10162;SDS011;5123;52.556;13.384;2024-03-07T12:19:40;15.07;;;11.77;;
10162;SDS011;5123;52.556;13.384;2024-03-07T12:22:15;17.40;;;11.97;;
10162;SDS011;5123;52.556;13.384;2024-03-07T12:25:03;16.50;;;12.43;;
10162;SDS011;5123;52.556;13.384;2024-03-07T12:27:39;17.10;;;11.83;;
10162;SDS011;5123;52.556;13.384;2024-03-07T12:30:15;17.40;;;11.73;;
10162;SDS011;5123;52.556;13.384;2024-03-07T12:32:51;16.43;;;11.67;;
10162;SDS011;5123;52.556;13.384;2024-03-07T12:35:25;16.27;;;12.60;;
10162;SDS011;5123;52.556;13.384;2024-03-07T12:38:03;15.67;;;11.97;;
10162;SDS011;5123;52.556;13.384;2024-03-07T12:40:40;15.00;;;11.30;;
10162;SDS011;5123;52.556;13.384;2024-03-07T12:43:19;15.97;;;11.90;;
10162;SDS011;5123;52.556;13.384;2024-03-07T12:45:54;16.77;;;12.50;;
10162;SDS011;5123;52.556;13.384;2024-03-07T12:48:29;19.70;;;13.37;;
10162;SDS011;5123;52.556;13.384;2024-03-07T12:51:04;17.67;;;12.67;;
10162;SDS011;5123;52.556;13.384;2024-03-07T12:53:37;15.87;;;12.30;;
10162;SDS011;5123;52.556;13.384;2024-03-07T12:56:12;16.57;;;12.17;;
10162;SDS011;5123;52.556;13.384;2024-03-07T12:58:47;17.87;;;12.63;;
10162;SDS011;5123;52.556;13.384;2024-03-07T13:01:22;18.50;;;12.33;;
10162;SDS011;5123;52.556;13.384;2024-03-07T13:03:55;14.47;;;11.67;;
10162;SDS011;5123;52.556;13.384;2024-03-07T13:06:28;15.60;;;12.73;;
10162;SDS011;5123;52.556;13.384;2024-03-07T13:09:01;16.10;;;12.93;;
10162;SDS011;5123;52.556;13.384;2024-03-07T13:11:37;18.10;;;14.40;;
10162;SDS011;5123;52.556;13.384;2024-03-07T13:14:12;20.17;;;13.77;;
10162;SDS011;5123;52.556;13.384;2024-03-07T13:16:45;17.63;;;13.20;;
10162;SDS011;5123;52.556;13.384;2024-03-07T13:19:17;17.27;;;12.23;;
10162;SDS011;5123;52.556;13.384;2024-03-07T13:21:52;16.67;;;13.33;;
10162;SDS011;5123;52.556;13.384;2024-03-07T13:24:25;15.97;;;11.93;;
10162;SDS011;5123;52.556;13.384;2024-03-07T13:27:03;17.60;;;13.83;;
10162;SDS011;5123;52.556;13.384;2024-03-07T13:29:36;18.83;;;14.50;;
10162;SDS011;5123;52.556;13.384;2024-03-07T13:32:08;16.27;;;13.40;;
10162;SDS011;5123;52.556;13.384;2024-03-07T13:34:44;16.30;;;13.00;;
10162;SDS011;5123;52.556;13.384;2024-03-07T13:37:17;16.93;;;13.20;;
10162;SDS011;5123;52.556;13.384;2024-03-07T13:39:49;17.47;;;12.87;;
10162;SDS011;5123;52.556;13.384;2024-03-07T13:42:23;17.23;;;14.23;;
10162;SDS011;5123;52.556;13.384;2024-03-07T13:44:56;15.70;;;12.47;;
10162;SDS011;5123;52.556;13.384;2024-03-07T13:47:29;17.70;;;13.40;;
10162;SDS011;5123;52.556;13.384;2024-03-07T13:50:02;17.17;;;13.10;;
10162;SDS011;5123;52.556;13.384;2024-03-07T13:52:44;16.63;;;13.03;;
10162;SDS011;5123;52.556;13.384;2024-03-07T13:58:34;22.80;;;15.17;;
10162;SDS011;5123;52.556;13.384;2024-03-07T14:01:16;17.60;;;13.50;;
10162;SDS011;5123;52.556;13.384;2024-03-07T14:06:47;19.47;;;14.10;;
10162;SDS011;5123;52.556;13.384;2024-03-07T14:12:19;16.57;;;14.10;;
10162;SDS011;5123;52.556;13.384;2024-03-07T14:18:10;19.67;;;12.93;;
10162;SDS011;5123;52.556;13.384;2024-03-07T14:20:53;17.93;;;14.43;;
10162;SDS011;5123;52.556;13.384;2024-03-07T14:23:34;18.47;;;14.37;;
10162;SDS011;5123;52.556;13.384;2024-03-07T14:26:33;18.97;;;13.53;;
10162;SDS011;5123;52.556;13.384;2024-03-07T14:29:12;19.57;;;14.50;;
10162;SDS011;5123;52.556;13.384;2024-03-07T14:31:51;16.63;;;12.73;;
10162;SDS011;5123;52.556;13.384;2024-03-07T14:34:29;20.37;;;13.50;;
10162;SDS011;5123;52.556;13.384;2024-03-07T14:37:09;17.53;;;13.27;;
10162;SDS011;5123;52.556;13.384;2024-03-07T14:39:45;18.87;;;13.50;;
10162;SDS011;5123;52.556;13.384;2024-03-07T14:42:20;17.70;;;13.30;;
10162;SDS011;5123;52.556;13.384;2024-03-07T14:44:54;16.00;;;12.07;;
10162;SDS011;5123;52.556;13.384;2024-03-07T14:47:27;17.97;;;12.40;;
10162;SDS011;5123;52.556;13.384;2024-03-07T14:50:01;16.87;;;12.33;;
10162;SDS011;5123;52.556;13.384;2024-03-07T14:52:34;17.60;;;12.37;;
10162;SDS011;5123;52.556;13.384;2024-03-07T14:55:07;16.33;;;11.63;;
10162;SDS011;5123;52.556;13.384;2024-03-07T14:57:44;15.87;;;12.57;;
10162;SDS011;5123;52.556;13.384;2024-03-07T15:00:17;16.60;;;12.63;;
10162;SDS011;5123;52.556;13.384;2024-03-07T15:02:54;16.17;;;12.10;;
10162;SDS011;5123;52.556;13.384;2024-03-07T15:05:29;18.23;;;12.00;;
10162;SDS011;5123;52.556;13.384;2024-03-07T15:08:02;17.10;;;12.17;;
10162;SDS011;5123;52.556;13.384;2024-03-07T15:10:36;16.37;;;11.53;;
10162;SDS011;5123;52.556;13.384;2024-03-07T15:13:09;15.63;;;11.43;;
10162;SDS011;5123;52.556;13.384;2024-03-07T15:15:43;16.43;;;11.87;;
10162;SDS011;5123;52.556;13.384;2024-03-07T15:18:19;16.87;;;11.60;;